Wayne, WV (25570)

6:10 PM EDT on September 01, 2014 (GMT -0400)
Tri-State / Ferguson | Change Station
CLOSE
Current Station
Airport
Location: Huntington,
Elevation: 837 ft
Nearby Weather Stations

Elev 837 ft 38.37 °N, 82.56 °W | Updated 19 minutes ago

Clear
Clear
75 °F
Feels Like 75 °F
N
5
Wind Variable Wind from SSW

Today
High -- | Low -- °F
--% Chance of Precip.
Yesterday
High -- | Low -- °F
Precip. -- in
6:59 AM 7:59 PM
Waxing Crescent, 44% visible
Pressure 29.97 in
Visibility 10.0 miles
Clouds Clear
Dew Point 71 °F
Humidity 87%
Rainfall 0.24 in
Snow Depth Not available.
UV 2 out of 12
Pollen 9.30 out of 12
Air Quality Not available.
Flu Activity Not available.
METAR KHTS 012151Z AUTO 20004KT 10SM CLR 24/22 A2999 RMK AO2 RAE11 SLP148 P0000 T02390217 TSNO

More Conditions Fewer Conditions

Pressure 29.97 in
Visibility 10.0 miles
Clouds Clear
Dew Point 71 °F
Humidity 87%
Rainfall 0.24 in
Snow Depth Not available.
UV 2 out of 12
Pollen 9.30 out of 12
Air Quality Not available.
Flu Activity Not available.
METAR KHTS 012151Z AUTO 20004KT 10SM CLR 24/22 A2999 RMK AO2 RAE11 SLP148 P0000 T02390217 TSNO

More Conditions Fewer Conditions

10-Day Weather Forecast

Almanac

Astronomy

Sep. 01, 2014 Rise Set
Actual Time 6:59 AM EDT 7:59 PM EDT
Civil Twilight 6:32 AM EDT 8:26 PM EDT
Nautical Twilight 6:00 AM EDT 8:58 PM EDT
Astronomical Twilight 5:26 AM EDT 9:31 PM EDT
Moon 1:38 PM EDT No Moon Set
Length of Visible Light 13h 54m
Length of Day
13h 00m
Tomorrow will be 2m 22s shorter.
Waxing Crescent, 44% of the Moon is Illuminated
Today
Waxing Crescent
Sep 2
First Quarter
Sep 8
Full
Sep 15
Last Quarter
Sep 24
New

Today's Extremes

State Highs State Lows

Community

WunderPhotos

Upload Photos

1,749,420 photos uploaded!

Nearby

Snow Depth

Station Depth Elevation
No new snow has been reported.

Earthquake Activity

City Distance Mag. Time & Date
No recent earthquake activity has been reported nearby.
Minimum magnitude displayed is 2.5.

Coastal Water Temperatures

Place Temperature
No Stations Reporting

Nearby Weather Stations